sensor_id;sensor_type;location;lat;lon;timestamp;pressure;altitude;pressure_sealevel;temperature;humidity
60489;BME280;46331;49.252;8.904;2023-04-16T00:00:36;99729.44;;;8.67;100.00
60489;BME280;46331;49.252;8.904;2023-04-16T00:01:17;99729.66;;;8.66;100.00
60489;BME280;46331;49.252;8.904;2023-04-16T00:01:57;99730.44;;;8.66;100.00
60489;BME280;46331;49.252;8.904;2023-04-16T00:02:38;99731.03;;;8.68;100.00
60489;BME280;46331;49.252;8.904;2023-04-16T00:03:18;99730.44;;;8.66;100.00
60489;BME280;46331;49.252;8.904;2023-04-16T00:03:59;99732.66;;;8.69;100.00
60489;BME280;46331;49.252;8.904;2023-04-16T00:04:40;99722.75;;;8.65;100.00
60489;BME280;46331;49.252;8.904;2023-04-16T00:05:20;99725.94;;;8.55;100.00
60489;BME280;46331;49.252;8.904;2023-04-16T00:06:01;99727.06;;;8.59;100.00
60489;BME280;46331;49.252;8.904;2023-04-16T00:06:42;99731.13;;;8.62;100.00
60489;BME280;46331;49.252;8.904;2023-04-16T00:07:23;99731.13;;;8.62;100.00
60489;BME280;46331;49.252;8.904;2023-04-16T00:08:03;99722.75;;;8.65;100.00
60489;BME280;46331;49.252;8.904;2023-04-16T00:08:44;99727.00;;;8.66;100.00
60489;BME280;46331;49.252;8.904;2023-04-16T00:09:24;99728.47;;;8.62;100.00
60489;BME280;46331;49.252;8.904;2023-04-16T00:10:06;99726.28;;;8.58;100.00
60489;BME280;46331;49.252;8.904;2023-04-16T00:10:46;99724.81;;;8.63;100.00
60489;BME280;46331;49.252;8.904;2023-04-16T00:11:27;99724.38;;;8.66;100.00
60489;BME280;46331;49.252;8.904;2023-04-16T00:12:07;99724.16;;;8.67;100.00
60489;BME280;46331;49.252;8.904;2023-04-16T00:12:48;99727.81;;;8.66;100.00
60489;BME280;46331;49.252;8.904;2023-04-16T00:13:28;99724.72;;;8.69;100.00
60489;BME280;46331;49.252;8.904;2023-04-16T00:14:09;99731.19;;;8.73;100.00
60489;BME280;46331;49.252;8.904;2023-04-16T00:14:49;99721.63;;;8.72;100.00
60489;BME280;46331;49.252;8.904;2023-04-16T00:15:30;99735.06;;;8.71;100.00
60489;BME280;46331;49.252;8.904;2023-04-16T00:16:10;99728.31;;;8.75;100.00
60489;BME280;46331;49.252;8.904;2023-04-16T00:16:51;99731.97;;;8.74;100.00
60489;BME280;46331;49.252;8.904;2023-04-16T00:17:31;99729.34;;;8.74;100.00
60489;BME280;46331;49.252;8.904;2023-04-16T00:18:12;99722.75;;;8.65;100.00
60489;BME280;46331;49.252;8.904;2023-04-16T00:18:52;99724.66;;;8.57;100.00
60489;BME280;46331;49.252;8.904;2023-04-16T00:19:33;99727.06;;;8.59;100.00
60489;BME280;46331;49.252;8.904;2023-04-16T00:20:13;99728.47;;;8.62;100.00
60489;BME280;46331;49.252;8.904;2023-04-16T00:20:54;99726.06;;;8.60;100.00
60489;BME280;46331;49.252;8.904;2023-04-16T00:21:35;99731.56;;;8.58;100.00
60489;BME280;46331;49.252;8.904;2023-04-16T00:22:15;99722.16;;;8.63;100.00
60489;BME280;46331;49.252;8.904;2023-04-16T00:22:56;99738.03;;;8.63;100.00
60489;BME280;46331;49.252;8.904;2023-04-16T00:23:37;99724.94;;;8.68;100.00
60489;BME280;46331;49.252;8.904;2023-04-16T00:24:17;99730.22;;;8.68;100.00
60489;BME280;46331;49.252;8.904;2023-04-16T00:24:58;99723.75;;;8.64;100.00
60489;BME280;46331;49.252;8.904;2023-04-16T00:25:38;99729.78;;;8.71;100.00
60489;BME280;46331;49.252;8.904;2023-04-16T00:26:19;99733.81;;;8.73;100.00
60489;BME280;46331;49.252;8.904;2023-04-16T00:27:00;99724.50;;;8.71;100.00
60489;BME280;46331;49.252;8.904;2023-04-16T00:27:41;99732.66;;;8.69;100.00
60489;BME280;46331;49.252;8.904;2023-04-16T00:28:21;99731.03;;;8.68;100.00
60489;BME280;46331;49.252;8.904;2023-04-16T00:29:02;99734.72;;;8.67;100.00
60489;BME280;46331;49.252;8.904;2023-04-16T00:29:42;99728.59;;;8.67;100.00
60489;BME280;46331;49.252;8.904;2023-04-16T00:30:23;99733.88;;;8.67;100.00
60489;BME280;46331;49.252;8.904;2023-04-16T00:31:03;99730.22;;;8.68;100.00
60489;BME280;46331;49.252;8.904;2023-04-16T00:31:44;99728.16;;;8.70;100.00
60489;BME280;46331;49.252;8.904;2023-04-16T00:32:24;99728.97;;;8.70;100.00
60489;BME280;46331;49.252;8.904;2023-04-16T00:33:05;99734.63;;;8.74;100.00
60489;BME280;46331;49.252;8.904;2023-04-16T00:33:46;99730.13;;;8.74;100.00
60489;BME280;46331;49.252;8.904;2023-04-16T00:34:26;99728.88;;;8.77;100.00
60489;BME280;46331;49.252;8.904;2023-04-16T00:35:07;99732.31;;;8.77;100.00
60489;BME280;46331;49.252;8.904;2023-04-16T00:35:47;99724.81;;;8.63;100.00
60489;BME280;46331;49.252;8.904;2023-04-16T00:36:28;99727.69;;;8.61;100.00
60489;BME280;46331;49.252;8.904;2023-04-16T00:37:09;99737.44;;;8.61;100.00
60489;BME280;46331;49.252;8.904;2023-04-16T00:37:49;99722.16;;;8.63;100.00
60489;BME280;46331;49.252;8.904;2023-04-16T00:38:30;99728.25;;;8.63;100.00
60489;BME280;46331;49.252;8.904;2023-04-16T00:39:11;99734.13;;;8.65;100.00
60489;BME280;46331;49.252;8.904;2023-04-16T00:39:52;99731.25;;;8.67;100.00
60489;BME280;46331;49.252;8.904;2023-04-16T00:40:32;99732.16;;;8.61;100.00
60489;BME280;46331;49.252;8.904;2023-04-16T00:41:13;99727.81;;;8.66;100.00
60489;BME280;46331;49.252;8.904;2023-04-16T00:41:53;99728.69;;;8.60;100.00
60489;BME280;46331;49.252;8.904;2023-04-16T00:42:34;99733.41;;;8.58;100.00
60489;BME280;46331;49.252;8.904;2023-04-16T00:43:21;99724.88;;;8.56;100.00
60489;BME280;46331;49.252;8.904;2023-04-16T00:44:02;99732.53;;;8.64;100.00
60489;BME280;46331;49.252;8.904;2023-04-16T00:44:43;99728.25;;;8.63;100.00
60489;BME280;46331;49.252;8.904;2023-04-16T00:45:23;99729.44;;;8.67;100.00
60489;BME280;46331;49.252;8.904;2023-04-16T00:46:04;99733.63;;;8.56;100.00
60489;BME280;46331;49.252;8.904;2023-04-16T00:46:46;99726.94;;;8.54;100.00
60489;BME280;46331;49.252;8.904;2023-04-16T00:47:27;99737.09;;;8.57;100.00
60489;BME280;46331;49.252;8.904;2023-04-16T00:48:08;99733.53;;;8.63;100.00
60489;BME280;46331;49.252;8.904;2023-04-16T00:48:49;99735.84;;;8.59;100.00
60489;BME280;46331;49.252;8.904;2023-04-16T00:49:30;99738.84;;;8.63;100.00
60489;BME280;46331;49.252;8.904;2023-04-16T00:50:11;99733.31;;;8.65;100.00
60489;BME280;46331;49.252;8.904;2023-04-16T00:50:52;99731.66;;;8.52;100.00
60489;BME280;46331;49.252;8.904;2023-04-16T00:51:34;99733.19;;;8.59;100.00
60489;BME280;46331;49.252;8.904;2023-04-16T00:52:15;99735.69;;;8.54;100.00
60489;BME280;46331;49.252;8.904;2023-04-16T00:52:56;99736.28;;;8.56;100.00
60489;BME280;46331;49.252;8.904;2023-04-16T00:53:37;99732.16;;;8.61;100.00
60489;BME280;46331;49.252;8.904;2023-04-16T00:54:18;99740.22;;;8.66;100.00
60489;BME280;46331;49.252;8.904;2023-04-16T00:54:59;99733.66;;;8.68;100.00
60489;BME280;46331;49.252;8.904;2023-04-16T00:55:40;99739.19;;;8.67;100.00
60489;BME280;46331;49.252;8.904;2023-04-16T00:56:21;99729.78;;;8.71;100.00
60489;BME280;46331;49.252;8.904;2023-04-16T00:57:03;99735.63;;;8.73;100.00
60489;BME280;46331;49.252;8.904;2023-04-16T00:57:44;99734.63;;;8.74;100.00
60489;BME280;46331;49.252;8.904;2023-04-16T00:58:25;99738.44;;;8.78;100.00
60489;BME280;46331;49.252;8.904;2023-04-16T00:59:06;99735.56;;;8.80;100.00
60489;BME280;46331;49.252;8.904;2023-04-16T00:59:46;99743.28;;;8.81;100.00
60489;BME280;46331;49.252;8.904;2023-04-16T01:00:27;99734.28;;;8.82;100.00
60489;BME280;46331;49.252;8.904;2023-04-16T01:01:07;99739.97;;;8.86;100.00
60489;BME280;46331;49.252;8.904;2023-04-16T01:01:48;99732.25;;;8.84;100.00
60489;BME280;46331;49.252;8.904;2023-04-16T01:02:28;99739.13;;;8.85;100.00
60489;BME280;46331;49.252;8.904;2023-04-16T01:03:09;99732.69;;;8.81;100.00
60489;BME280;46331;49.252;8.904;2023-04-16T01:03:50;99736.94;;;8.82;100.00
60489;BME280;46331;49.252;8.904;2023-04-16T01:04:32;99741.44;;;8.82;100.00
60489;BME280;46331;49.252;8.904;2023-04-16T01:05:13;99738.91;;;8.87;100.00
60489;BME280;46331;49.252;8.904;2023-04-16T01:05:54;99739.13;;;8.85;100.00
60489;BME280;46331;49.252;8.904;2023-04-16T01:06:35;99742.59;;;8.86;100.00
60489;BME280;46331;49.252;8.904;2023-04-16T01:07:15;99730.41;;;8.85;100.00
60489;BME280;46331;49.252;8.904;2023-04-16T01:07:59;99732.72;;;8.93;100.00
60489;BME280;46331;49.252;8.904;2023-04-16T01:08:40;99740.66;;;8.93;100.00
60489;BME280;46331;49.252;8.904;2023-04-16T01:09:21;99731.66;;;8.82;100.00
60489;BME280;46331;49.252;8.904;2023-04-16T01:10:02;99730.91;;;8.63;100.00
60489;BME280;46331;49.252;8.904;2023-04-16T01:10:43;99733.44;;;8.70;100.00
60489;BME280;46331;49.252;8.904;2023-04-16T01:11:24;99727.25;;;8.76;100.00
60489;BME280;46331;49.252;8.904;2023-04-16T01:12:05;99730.50;;;8.78;100.00
60489;BME280;46331;49.252;8.904;2023-04-16T01:12:45;99729.44;;;8.79;100.00
60489;BME280;46331;49.252;8.904;2023-04-16T01:13:26;99734.16;;;8.77;100.00
60489;BME280;46331;49.252;8.904;2023-04-16T01:14:06;99732.31;;;8.77;100.00
60489;BME280;46331;49.252;8.904;2023-04-16T01:14:47;99734.63;;;8.74;100.00
60489;BME280;46331;49.252;8.904;2023-04-16T01:15:28;99735.34;;;8.81;100.00
60489;BME280;46331;49.252;8.904;2023-04-16T01:16:10;99734.03;;;8.72;100.00
60489;BME280;46331;49.252;8.904;2023-04-16T01:16:51;99736.00;;;8.76;100.00
60489;BME280;46331;49.252;8.904;2023-04-16T01:17:32;99739.63;;;8.64;100.00
60489;BME280;46331;49.252;8.904;2023-04-16T01:18:14;99731.25;;;8.67;100.00
60489;BME280;46331;49.252;8.904;2023-04-16T01:18:55;99735.50;;;8.68;100.00
60489;BME280;46331;49.252;8.904;2023-04-16T01:19:35;99734.72;;;8.67;100.00
60489;BME280;46331;49.252;8.904;2023-04-16T01:20:16;99739.34;;;8.72;100.00
60489;BME280;46331;49.252;8.904;2023-04-16T01:20:57;99739.91;;;8.74;100.00
60489;BME280;46331;49.252;8.904;2023-04-16T01:21:37;99731.19;;;8.73;100.00
60489;BME280;46331;49.252;8.904;2023-04-16T01:22:18;99741.53;;;8.75;100.00
60489;BME280;46331;49.252;8.904;2023-04-16T01:22:58;99743.13;;;8.76;100.00
60489;BME280;46331;49.252;8.904;2023-04-16T01:23:39;99735.78;;;8.78;100.00
60489;BME280;46331;49.252;8.904;2023-04-16T01:24:20;99739.47;;;8.77;100.00
60489;BME280;46331;49.252;8.904;2023-04-16T01:25:00;99735.19;;;8.76;100.00
60489;BME280;46331;49.252;8.904;2023-04-16T01:25:41;99740.25;;;8.77;100.00
60489;BME280;46331;49.252;8.904;2023-04-16T01:26:21;99741.44;;;8.82;100.00
60489;BME280;46331;49.252;8.904;2023-04-16T01:27:02;99746.28;;;8.85;100.00
60489;BME280;46331;49.252;8.904;2023-04-16T01:27:43;99747.28;;;8.84;100.00
60489;BME280;46331;49.252;8.904;2023-04-16T01:28:23;99743.41;;;8.86;100.00
60489;BME280;46331;49.252;8.904;2023-04-16T01:29:04;99743.34;;;8.74;100.00
60489;BME280;46331;49.252;8.904;2023-04-16T01:29:44;99743.56;;;8.73;100.00
60489;BME280;46331;49.252;8.904;2023-04-16T01:30:25;99740.91;;;8.61;100.00
60489;BME280;46331;49.252;8.904;2023-04-16T01:31:17;99743.66;;;8.66;100.00
60489;BME280;46331;49.252;8.904;2023-04-16T01:32:08;99749.31;;;8.70;100.00
60489;BME280;46331;49.252;8.904;2023-04-16T01:32:50;99747.03;;;8.73;100.00
60489;BME280;46331;49.252;8.904;2023-04-16T01:33:31;99746.16;;;8.80;100.00
60489;BME280;46331;49.252;8.904;2023-04-16T01:34:11;99749.13;;;8.83;100.00
60489;BME280;46331;49.252;8.904;2023-04-16T01:34:52;99751.88;;;8.76;100.00
60489;BME280;46331;49.252;8.904;2023-04-16T01:35:33;99748.41;;;8.76;100.00
60489;BME280;46331;49.252;8.904;2023-04-16T01:36:13;99753.03;;;8.81;100.00
60489;BME280;46331;49.252;8.904;2023-04-16T01:36:54;99749.25;;;8.88;100.00
60489;BME280;46331;49.252;8.904;2023-04-16T01:37:34;99749.03;;;8.90;100.00
60489;BME280;46331;49.252;8.904;2023-04-16T01:38:15;99749.03;;;8.90;100.00
60489;BME280;46331;49.252;8.904;2023-04-16T01:38:56;99755.22;;;8.84;100.00
60489;BME280;46331;49.252;8.904;2023-04-16T01:39:37;99757.41;;;8.75;100.00
60489;BME280;46331;49.252;8.904;2023-04-16T01:40:18;99748.19;;;8.77;100.00
60489;BME280;46331;49.252;8.904;2023-04-16T01:40:58;99752.44;;;8.79;100.00
60489;BME280;46331;49.252;8.904;2023-04-16T01:41:40;99753.69;;;8.76;100.00
60489;BME280;46331;49.252;8.904;2023-04-16T01:42:20;99749.25;;;8.76;100.00
60489;BME280;46331;49.252;8.904;2023-04-16T01:43:03;99756.50;;;8.81;100.00
60489;BME280;46331;49.252;8.904;2023-04-16T01:43:43;99751.34;;;8.86;100.00
60489;BME280;46331;49.252;8.904;2023-04-16T01:44:24;99750.97;;;8.83;100.00
60489;BME280;46331;49.252;8.904;2023-04-16T01:45:05;99756.63;;;8.86;100.00
60489;BME280;46331;49.252;8.904;2023-04-16T01:45:46;99753.31;;;8.91;100.00
60489;BME280;46331;49.252;8.904;2023-04-16T01:46:27;99758.72;;;8.96;100.00
60489;BME280;46331;49.252;8.904;2023-04-16T01:47:08;99762.47;;;8.88;100.00
60489;BME280;46331;49.252;8.904;2023-04-16T01:47:50;99753.53;;;8.89;100.00
60489;BME280;46331;49.252;8.904;2023-04-16T01:48:31;99757.25;;;8.70;100.00
60489;BME280;46331;49.252;8.904;2023-04-16T01:49:14;99747.75;;;8.81;100.00
60489;BME280;46331;49.252;8.904;2023-04-16T01:49:55;99753.63;;;8.83;100.00
60489;BME280;46331;49.252;8.904;2023-04-16T01:50:36;99766.88;;;8.94;100.00
60489;BME280;46331;49.252;8.904;2023-04-16T01:51:17;99756.72;;;8.80;100.00
60489;BME280;46331;49.252;8.904;2023-04-16T01:51:58;99751.22;;;8.81;100.00
60489;BME280;46331;49.252;8.904;2023-04-16T01:52:38;99754.66;;;8.82;100.00
60489;BME280;46331;49.252;8.904;2023-04-16T01:53:20;99758.31;;;8.81;100.00
60489;BME280;46331;49.252;8.904;2023-04-16T01:54:00;99756.94;;;8.78;100.00
60489;BME280;46331;49.252;8.904;2023-04-16T01:54:41;99753.69;;;8.76;100.00
60489;BME280;46331;49.252;8.904;2023-04-16T01:55:21;99752.34;;;8.85;100.00
60489;BME280;46331;49.252;8.904;2023-04-16T01:56:02;99758.09;;;8.82;100.00
60489;BME280;46331;49.252;8.904;2023-04-16T01:56:42;99757.28;;;8.82;100.00
60489;BME280;46331;49.252;8.904;2023-04-16T01:57:23;99756.94;;;8.78;100.00
60489;BME280;46331;49.252;8.904;2023-04-16T01:58:03;99757.84;;;8.72;100.00
60489;BME280;46331;49.252;8.904;2023-04-16T01:58:48;99758.41;;;8.74;100.00
60489;BME280;46331;49.252;8.904;2023-04-16T01:59:30;99751.28;;;8.74;100.00
60489;BME280;46331;49.252;8.904;2023-04-16T02:00:11;99749.53;;;8.68;100.00
60489;BME280;46331;49.252;8.904;2023-04-16T02:01:01;99755.31;;;8.77;100.00
60489;BME280;46331;49.252;8.904;2023-04-16T02:01:42;99759.81;;;8.76;100.00
60489;BME280;46331;49.252;8.904;2023-04-16T02:02:23;99757.63;;;8.73;100.00
60489;BME280;46331;49.252;8.904;2023-04-16T02:03:08;99750.81;;;8.66;100.00
60489;BME280;46331;49.252;8.904;2023-04-16T02:03:50;99752.91;;;8.75;100.00
60489;BME280;46331;49.252;8.904;2023-04-16T02:04:31;99755.94;;;8.61;100.00
60489;BME280;46331;49.252;8.904;2023-04-16T02:05:12;99753.16;;;8.55;100.00
60489;BME280;46331;49.252;8.904;2023-04-16T02:05:52;99751.69;;;8.59;100.00
60489;BME280;46331;49.252;8.904;2023-04-16T02:06:33;99755.34;;;8.58;100.00
60489;BME280;46331;49.252;8.904;2023-04-16T02:07:15;99752.16;;;8.56;100.00
60489;BME280;46331;49.252;8.904;2023-04-16T02:07:55;99759.53;;;8.66;100.00
60489;BME280;46331;49.252;8.904;2023-04-16T02:08:36;99749.06;;;8.59;100.00
60489;BME280;46331;49.252;8.904;2023-04-16T02:09:17;99757.44;;;8.56;100.00
60489;BME280;46331;49.252;8.904;2023-04-16T02:09:57;99756.97;;;8.59;100.00
60489;BME280;46331;49.252;8.904;2023-04-16T02:10:38;99755.22;;;8.53;100.00
60489;BME280;46331;49.252;8.904;2023-04-16T02:11:19;99760.06;;;8.56;100.00
60489;BME280;46331;49.252;8.904;2023-04-16T02:12:00;99761.59;;;8.64;100.00
60489;BME280;46331;49.252;8.904;2023-04-16T02:12:43;99761.88;;;8.56;100.00
60489;BME280;46331;49.252;8.904;2023-04-16T02:13:23;99759.34;;;8.49;100.00
60489;BME280;46331;49.252;8.904;2023-04-16T02:14:05;99753.97;;;8.56;100.00
60489;BME280;46331;49.252;8.904;2023-04-16T02:14:47;99759.34;;;8.49;100.00
60489;BME280;46331;49.252;8.904;2023-04-16T02:15:30;99751.09;;;8.39;100.00
60489;BME280;46331;49.252;8.904;2023-04-16T02:16:10;99761.53;;;8.34;100.00
60489;BME280;46331;49.252;8.904;2023-04-16T02:17:04;99761.09;;;8.37;100.00
60489;BME280;46331;49.252;8.904;2023-04-16T02:17:50;99760.63;;;8.40;100.00
60489;BME280;46331;49.252;8.904;2023-04-16T02:18:36;99758.22;;;8.38;100.00
60489;BME280;46331;49.252;8.904;2023-04-16T02:19:17;99757.88;;;8.35;100.00
60489;BME280;46331;49.252;8.904;2023-04-16T02:19:58;99756.34;;;8.46;100.00
60489;BME280;46331;49.252;8.904;2023-04-16T02:20:43;99757.38;;;8.45;100.00
60489;BME280;46331;49.252;8.904;2023-04-16T02:21:23;99757.56;;;8.43;100.00
60489;BME280;46331;49.252;8.904;2023-04-16T02:22:05;99759.84;;;8.39;100.00
60489;BME280;46331;49.252;8.904;2023-04-16T02:22:46;99764.31;;;8.39;100.00
60489;BME280;46331;49.252;8.904;2023-04-16T02:23:30;99764.84;;;8.48;100.00
60489;BME280;46331;49.252;8.904;2023-04-16T02:24:12;99764.84;;;8.48;100.00
60489;BME280;46331;49.252;8.904;2023-04-16T02:24:54;99765.13;;;8.39;100.00
60489;BME280;46331;49.252;8.904;2023-04-16T02:25:45;99764.31;;;8.39;100.00
60489;BME280;46331;49.252;8.904;2023-04-16T02:26:26;99753.50;;;8.40;100.00
60489;BME280;46331;49.252;8.904;2023-04-16T02:27:11;99767.31;;;8.43;100.00
60489;BME280;46331;49.252;8.904;2023-04-16T02:27:53;99767.53;;;8.41;100.00
60489;BME280;46331;49.252;8.904;2023-04-16T02:28:48;99767.13;;;8.44;100.00
60489;BME280;46331;49.252;8.904;2023-04-16T02:29:31;99764.31;;;8.39;100.00
60489;BME280;46331;49.252;8.904;2023-04-16T02:30:19;99768.13;;;8.43;100.00
60489;BME280;46331;49.252;8.904;2023-04-16T02:31:00;99772.41;;;8.44;100.00
60489;BME280;46331;49.252;8.904;2023-04-16T02:31:44;99767.28;;;8.49;100.00
60489;BME280;46331;49.252;8.904;2023-04-16T02:32:26;99768.28;;;8.48;100.00
60489;BME280;46331;49.252;8.904;2023-04-16T02:33:09;99768.56;;;8.40;100.00
60489;BME280;46331;49.252;8.904;2023-04-16T02:33:53;99768.13;;;8.43;100.00
60489;BME280;46331;49.252;8.904;2023-04-16T02:34:34;99767.28;;;8.49;100.00
60489;BME280;46331;49.252;8.904;2023-04-16T02:35:15;99774.97;;;8.51;100.00
60489;BME280;46331;49.252;8.904;2023-04-16T02:35:55;99764.75;;;8.54;100.00
60489;BME280;46331;49.252;8.904;2023-04-16T02:36:36;99762.34;;;8.53;100.00
60489;BME280;46331;49.252;8.904;2023-04-16T02:37:17;99770.03;;;8.54;100.00
60489;BME280;46331;49.252;8.904;2023-04-16T02:37:58;99764.75;;;8.54;100.00
60489;BME280;46331;49.252;8.904;2023-04-16T02:38:39;99769.03;;;8.55;100.00
60489;BME280;46331;49.252;8.904;2023-04-16T02:39:20;99772.91;;;8.53;100.00
60489;BME280;46331;49.252;8.904;2023-04-16T02:40:01;99765.94;;;8.58;100.00
60489;BME280;46331;49.252;8.904;2023-04-16T02:40:42;99769.03;;;8.55;100.00
60489;BME280;46331;49.252;8.904;2023-04-16T02:41:23;99769.34;;;8.47;100.00
60489;BME280;46331;49.252;8.904;2023-04-16T02:42:04;99764.53;;;8.56;100.00
60489;BME280;46331;49.252;8.904;2023-04-16T02:42:44;99768.22;;;8.55;100.00
60489;BME280;46331;49.252;8.904;2023-04-16T02:43:25;99765.19;;;8.51;100.00
60489;BME280;46331;49.252;8.904;2023-04-16T02:44:06;99773.34;;;8.50;100.00
60489;BME280;46331;49.252;8.904;2023-04-16T02:44:46;99773.97;;;8.52;100.00
60489;BME280;46331;49.252;8.904;2023-04-16T02:45:27;99774.75;;;8.52;100.00
60489;BME280;46331;49.252;8.904;2023-04-16T02:46:07;99773.13;;;8.51;100.00
60489;BME280;46331;49.252;8.904;2023-04-16T02:46:48;99768.72;;;8.45;100.00
60489;BME280;46331;49.252;8.904;2023-04-16T02:47:29;99770.50;;;8.51;100.00
60489;BME280;46331;49.252;8.904;2023-04-16T02:48:10;99767.41;;;8.54;100.00
60489;BME280;46331;49.252;8.904;2023-04-16T02:48:50;99765.34;;;8.56;100.00
60489;BME280;46331;49.252;8.904;2023-04-16T02:49:31;99767.41;;;8.54;100.00
60489;BME280;46331;49.252;8.904;2023-04-16T02:50:12;99770.88;;;8.55;100.00
60489;BME280;46331;49.252;8.904;2023-04-16T02:50:53;99764.41;;;8.51;100.00
60489;BME280;46331;49.252;8.904;2023-04-16T02:51:33;99779.59;;;8.55;100.00
60489;BME280;46331;49.252;8.904;2023-04-16T02:52:14;99768.56;;;8.58;100.00
60489;BME280;46331;49.252;8.904;2023-04-16T02:52:54;99767.56;;;8.59;100.00
60489;BME280;46331;49.252;8.904;2023-04-16T02:53:35;99768.56;;;8.58;100.00
60489;BME280;46331;49.252;8.904;2023-04-16T02:54:16;99772.63;;;8.61;100.00
60489;BME280;46331;49.252;8.904;2023-04-16T02:54:56;99766.16;;;8.57;100.00
60489;BME280;46331;49.252;8.904;2023-04-16T02:55:37;99773.41;;;8.62;100.00
60489;BME280;46331;49.252;8.904;2023-04-16T02:56:17;99779.06;;;8.65;100.00
60489;BME280;46331;49.252;8.904;2023-04-16T02:56:58;99775.84;;;8.63;100.00
60489;BME280;46331;49.252;8.904;2023-04-16T02:57:38;99778.72;;;8.62;100.00
60489;BME280;46331;49.252;8.904;2023-04-16T02:58:20;99777.91;;;8.61;100.00
60489;BME280;46331;49.252;8.904;2023-04-16T02:59:01;99773.88;;;8.58;100.00
60489;BME280;46331;49.252;8.904;2023-04-16T02:59:42;99777.91;;;8.61;100.00
60489;BME280;46331;49.252;8.904;2023-04-16T03:00:22;99773.41;;;8.62;100.00
60489;BME280;46331;49.252;8.904;2023-04-16T03:01:03;99776.41;;;8.65;100.00
60489;BME280;46331;49.252;8.904;2023-04-16T03:01:44;99776.72;;;8.57;100.00
60489;BME280;46331;49.252;8.904;2023-04-16T03:02:25;99777.09;;;8.61;100.00
60489;BME280;46331;49.252;8.904;2023-04-16T03:03:06;99771.44;;;8.57;100.00
60489;BME280;46331;49.252;8.904;2023-04-16T03:03:47;99777.91;;;8.61;100.00
60489;BME280;46331;49.252;8.904;2023-04-16T03:04:27;99772.69;;;8.54;100.00
60489;BME280;46331;49.252;8.904;2023-04-16T03:05:08;99770.25;;;8.53;100.00
60489;BME280;46331;49.252;8.904;2023-04-16T03:05:49;99776.38;;;8.53;100.00
60489;BME280;46331;49.252;8.904;2023-04-16T03:06:30;99777.97;;;8.54;100.00
60489;BME280;46331;49.252;8.904;2023-04-16T03:07:10;99776.38;;;8.53;100.00
60489;BME280;46331;49.252;8.904;2023-04-16T03:07:52;99780.16;;;8.57;100.00
60489;BME280;46331;49.252;8.904;2023-04-16T03:08:35;99778.63;;;8.50;100.00
60489;BME280;46331;49.252;8.904;2023-04-16T03:09:16;99775.56;;;8.53;100.00
60489;BME280;46331;49.252;8.904;2023-04-16T03:09:56;99780.84;;;8.53;100.00
60489;BME280;46331;49.252;8.904;2023-04-16T03:10:37;99781.22;;;8.56;100.00
60489;BME280;46331;49.252;8.904;2023-04-16T03:11:18;99779.16;;;8.58;100.00
60489;BME280;46331;49.252;8.904;2023-04-16T03:12:00;99779.38;;;8.57;100.00
60489;BME280;46331;49.252;8.904;2023-04-16T03:12:43;99773.41;;;8.62;100.00
60489;BME280;46331;49.252;8.904;2023-04-16T03:13:24;99782.97;;;8.63;100.00
60489;BME280;46331;49.252;8.904;2023-04-16T03:14:05;99783.41;;;8.59;100.00
60489;BME280;46331;49.252;8.904;2023-04-16T03:14:45;99772.84;;;8.59;100.00
60489;BME280;46331;49.252;8.904;2023-04-16T03:15:26;99779.16;;;8.58;100.00
60489;BME280;46331;49.252;8.904;2023-04-16T03:16:06;99775.09;;;8.56;100.00
60489;BME280;46331;49.252;8.904;2023-04-16T03:16:47;99781.44;;;8.55;100.00
60489;BME280;46331;49.252;8.904;2023-04-16T03:17:27;99780.63;;;8.54;100.00
60489;BME280;46331;49.252;8.904;2023-04-16T03:18:09;99781.16;;;8.45;100.00
60489;BME280;46331;49.252;8.904;2023-04-16T03:18:49;99777.06;;;8.42;100.00
60489;BME280;46331;49.252;8.904;2023-04-16T03:19:30;99775.69;;;8.39;100.00
60489;BME280;46331;49.252;8.904;2023-04-16T03:20:11;99784.16;;;8.48;100.00
60489;BME280;46331;49.252;8.904;2023-04-16T03:20:52;99780.81;;;8.34;100.00
60489;BME280;46331;49.252;8.904;2023-04-16T03:21:32;99775.75;;;8.33;100.00
60489;BME280;46331;49.252;8.904;2023-04-16T03:22:13;99779.94;;;8.40;100.00
60489;BME280;46331;49.252;8.904;2023-04-16T03:22:54;99777.50;;;8.39;100.00
60489;BME280;46331;49.252;8.904;2023-04-16T03:23:34;99782.31;;;8.30;100.00
60489;BME280;46331;49.252;8.904;2023-04-16T03:24:15;99783.25;;;8.36;100.00
60489;BME280;46331;49.252;8.904;2023-04-16T03:24:56;99788.09;;;8.39;100.00
60489;BME280;46331;49.252;8.904;2023-04-16T03:25:37;99785.31;;;8.34;100.00
60489;BME280;46331;49.252;8.904;2023-04-16T03:26:21;99778.56;;;8.38;100.00
60489;BME280;46331;49.252;8.904;2023-04-16T03:27:03;99787.06;;;8.40;100.00
60489;BME280;46331;49.252;8.904;2023-04-16T03:27:44;99781.25;;;8.31;100.00
60489;BME280;46331;49.252;8.904;2023-04-16T03:28:25;99785.00;;;8.42;100.00
60489;BME280;46331;49.252;8.904;2023-04-16T03:29:06;99788.69;;;8.41;100.00
60489;BME280;46331;49.252;8.904;2023-04-16T03:29:46;99780.94;;;8.46;100.00
60489;BME280;46331;49.252;8.904;2023-04-16T03:30:27;99782.69;;;8.52;100.00
60489;BME280;46331;49.252;8.904;2023-04-16T03:31:07;99785.53;;;8.51;100.00
60489;BME280;46331;49.252;8.904;2023-04-16T03:31:49;99786.13;;;8.53;100.00
60489;BME280;46331;49.252;8.904;2023-04-16T03:32:29;99785.69;;;8.56;100.00
60489;BME280;46331;49.252;8.904;2023-04-16T03:33:10;99787.75;;;8.54;100.00
60489;BME280;46331;49.252;8.904;2023-04-16T03:33:51;99787.41;;;8.50;100.00
60489;BME280;46331;49.252;8.904;2023-04-16T03:34:32;99782.00;;;8.57;100.00
60489;BME280;46331;49.252;8.904;2023-04-16T03:35:12;99782.91;;;8.51;100.00
60489;BME280;46331;49.252;8.904;2023-04-16T03:35:57;99784.31;;;8.53;100.00
60489;BME280;46331;49.252;8.904;2023-04-16T03:36:39;99787.97;;;8.52;100.00
60489;BME280;46331;49.252;8.904;2023-04-16T03:37:20;99791.84;;;8.50;100.00
60489;BME280;46331;49.252;8.904;2023-04-16T03:38:00;99791.34;;;8.59;100.00
60489;BME280;46331;49.252;8.904;2023-04-16T03:38:41;99793.38;;;8.57;100.00